createdAt,value
2023-04-04T06:59:24.248Z,97258.09
2023-04-04T07:01:21.891Z,97267.56
2023-04-04T07:02:23.448Z,97274.38
2023-04-04T07:03:25.695Z,97266.66
2023-04-04T07:04:27.267Z,97274.28
2023-04-04T07:05:29.158Z,97274.28
2023-04-04T07:06:31.141Z,97264.97
2023-04-04T07:07:32.546Z,97277.84
2023-04-04T07:08:36.822Z,97270.03
2023-04-04T07:09:38.590Z,97282.03
2023-04-04T07:10:41.271Z,97276.13
2023-04-04T07:11:42.847Z,97280.44
2023-04-04T07:12:44.275Z,97281.16
2023-04-04T07:13:45.752Z,97269.03
2023-04-04T07:14:47.112Z,97280.88
2023-04-04T07:15:51.383Z,97266.53
2023-04-04T07:16:53.249Z,97284.31
2023-04-04T07:17:54.951Z,97270.31
2023-04-04T07:18:56.892Z,97277.25
2023-04-04T07:19:58.319Z,97283.03
2023-04-04T07:20:59.784Z,97275.09
2023-04-04T07:22:01.157Z,97280.03
2023-04-04T07:23:02.536Z,97275.34
2023-04-04T07:24:04.249Z,97280.41
2023-04-04T07:25:06.667Z,97270.22
2023-04-04T07:26:08.167Z,97265.50
2023-04-04T07:27:09.618Z,97281.50
2023-04-04T07:28:13.207Z,97276.22
2023-04-04T07:29:15.084Z,97273.94
2023-04-04T07:30:16.645Z,97275.97
2023-04-04T07:31:18.408Z,97279.69
2023-04-04T07:32:19.771Z,97276.94
2023-04-04T07:33:21.211Z,97280.50
2023-04-04T07:34:22.620Z,97274.72
2023-04-04T07:35:24.293Z,97281.44
2023-04-04T07:36:25.627Z,97281.28
2023-04-04T07:37:27.148Z,97274.06
2023-04-04T07:38:28.804Z,97286.56
2023-04-04T07:39:30.178Z,97281.75
2023-04-04T07:40:32.002Z,97269.13
2023-04-04T07:41:33.665Z,97275.00
2023-04-04T07:42:35.933Z,97279.94
2023-04-04T07:43:38.317Z,97280.94
2023-04-04T07:44:39.891Z,97274.66
2023-04-04T07:45:41.390Z,97263.75
2023-04-04T07:46:42.861Z,97275.66
2023-04-04T07:47:45.168Z,97273.03
2023-04-04T07:48:46.561Z,97276.34
2023-04-04T07:49:48.011Z,97275.47
2023-04-04T07:50:49.473Z,97281.19
2023-04-04T07:51:50.870Z,97283.13
2023-04-04T07:52:54.241Z,97280.09
2023-04-04T07:53:56.353Z,97277.13
2023-04-04T07:54:57.754Z,97285.91
2023-04-04T07:55:59.207Z,97275.22
2023-04-04T07:57:00.979Z,97275.13
2023-04-04T07:58:02.854Z,97278.91
2023-04-04T07:59:04.279Z,97260.44
2023-04-04T08:00:09.983Z,97278.38
2023-04-04T08:01:11.996Z,97282.09
2023-04-04T08:02:13.416Z,97265.03
2023-04-04T08:03:15.020Z,97282.28
2023-04-04T08:04:16.689Z,97276.56
2023-04-04T08:05:18.068Z,97283.81
2023-04-04T08:06:19.777Z,97274.88
2023-04-04T08:07:21.188Z,97277.19
2023-04-04T08:08:22.677Z,97262.22
2023-04-04T08:09:24.983Z,97260.72
2023-04-04T08:10:27.039Z,97279.00
2023-04-04T08:11:28.509Z,97271.16
2023-04-04T08:12:29.906Z,97255.00
2023-04-04T08:13:31.522Z,97219.44
2023-04-04T08:14:33.092Z,97267.47
2023-04-04T08:15:34.460Z,97273.41
2023-04-04T08:16:35.797Z,97271.03
2023-04-04T08:17:37.781Z,97274.72
2023-04-04T08:18:39.609Z,97279.22
2023-04-04T08:19:41.245Z,97271.50
2023-04-04T08:20:43.389Z,97261.06
2023-04-04T08:21:45.467Z,97270.69
2023-04-04T08:22:46.988Z,97270.94
2023-04-04T08:23:48.433Z,97262.66
2023-04-04T08:24:49.794Z,97262.88
2023-04-04T08:25:51.630Z,97261.97
2023-04-04T08:27:04.585Z,97266.38
2023-04-04T08:28:06.973Z,97267.13
2023-04-04T08:29:08.889Z,97277.91
2023-04-04T08:30:10.953Z,97263.41
2023-04-04T08:31:13.181Z,97267.19
2023-04-04T08:32:15.078Z,97269.75
2023-04-04T08:33:17.313Z,97263.63
2023-04-04T08:34:20.674Z,97272.56
2023-04-04T08:35:22.111Z,97270.28
2023-04-04T08:36:23.538Z,97269.47
2023-04-04T08:37:24.983Z,97269.97
2023-04-04T08:38:26.499Z,97261.53
2023-04-04T08:39:28.170Z,97261.69
2023-04-04T08:40:32.712Z,97265.97
2023-04-04T08:41:38.962Z,97262.84
2023-04-04T08:42:44.290Z,97264.28
2023-04-04T08:43:49.041Z,97264.75
2023-04-04T08:44:53.982Z,97269.50
2023-04-04T08:45:56.249Z,97262.94
2023-04-04T08:47:02.722Z,97285.47
2023-04-04T08:48:06.639Z,97274.75
2023-04-04T08:49:09.745Z,97286.63
2023-04-04T08:50:13.643Z,97286.22
2023-04-04T08:51:17.962Z,97278.66
2023-04-04T08:52:33.227Z,97279.63
2023-04-04T08:53:37.255Z,97279.00
2023-04-04T08:54:40.527Z,97287.56
2023-04-04T08:55:44.440Z,97274.72
2023-04-04T08:56:46.859Z,97283.69
2023-04-04T08:57:49.165Z,97288.81
2023-04-04T08:58:50.554Z,97284.72
2023-04-04T08:59:52.195Z,97283.84
2023-04-04T09:00:54.685Z,97275.03
2023-04-04T09:02:14.325Z,97281.50
2023-04-04T09:03:24.284Z,97282.28
2023-04-04T09:04:27.426Z,97255.81
2023-04-04T09:05:29.552Z,97267.56
2023-04-04T09:06:34.673Z,97269.34
2023-04-04T09:07:39.252Z,97275.19
2023-04-04T09:08:42.361Z,97284.44
2023-04-04T09:09:47.763Z,97278.09
2023-04-04T09:10:49.347Z,97271.63
2023-04-04T09:12:57.303Z,97277.97
2023-04-04T09:14:04.727Z,97236.16
2023-04-04T09:15:06.603Z,97282.19
2023-04-04T09:16:08.353Z,97278.69
2023-04-04T09:17:11.035Z,97277.00
2023-04-04T09:18:12.532Z,97288.34
2023-04-04T09:19:13.964Z,97280.03
2023-04-04T09:20:33.707Z,97282.31
2023-04-04T09:21:35.317Z,97286.41
2023-04-04T09:22:44.599Z,97278.59
2023-04-04T09:23:46.031Z,97279.34
2023-04-04T09:24:48.418Z,97285.72
2023-04-04T09:26:03.191Z,97274.88
2023-04-04T09:27:07.003Z,97274.41
2023-04-04T09:28:08.396Z,97280.78
2023-04-04T09:29:10.081Z,97274.03
2023-04-04T09:30:11.738Z,97284.34
2023-04-04T09:31:14.830Z,97279.88
2023-04-04T09:32:17.228Z,97281.78
2023-04-04T09:33:24.601Z,97278.31
2023-04-04T09:34:28.572Z,97267.56
2023-04-04T09:35:33.109Z,97267.13
2023-04-04T09:36:35.117Z,97277.53
2023-04-04T09:37:37.001Z,97274.50
2023-04-04T09:38:45.608Z,97277.50
2023-04-04T09:39:48.162Z,97278.94
2023-04-04T09:40:49.825Z,97273.84
2023-04-04T09:41:51.437Z,97271.22
2023-04-04T09:42:54.722Z,97273.91
2023-04-04T09:43:57.856Z,97258.66
2023-04-04T09:44:59.573Z,97268.00
2023-04-04T09:46:01.288Z,97273.09
2023-04-04T09:47:30.955Z,97282.00
2023-04-04T09:48:35.117Z,97280.78
2023-04-04T09:49:36.542Z,97280.47
2023-04-04T09:50:46.054Z,97274.34
2023-04-04T09:51:54.973Z,97273.53
2023-04-04T09:53:00.575Z,97267.03
2023-04-04T09:54:02.419Z,97271.50
2023-04-04T09:55:05.292Z,97273.06
2023-04-04T09:56:07.115Z,97270.59
2023-04-04T09:57:08.948Z,97274.81
2023-04-04T09:58:15.658Z,97278.16
2023-04-04T09:59:18.600Z,97279.41
2023-04-04T10:00:21.004Z,97272.78
2023-04-04T10:01:24.126Z,97284.13
2023-04-04T10:02:26.129Z,97277.56
2023-04-04T10:03:28.777Z,97263.13
2023-04-04T10:04:32.259Z,97275.31
2023-04-04T10:05:33.856Z,97269.75
2023-04-04T10:06:37.466Z,97272.69
2023-04-04T10:07:40.440Z,97280.09
2023-04-04T10:08:43.090Z,97282.97
2023-04-04T10:09:47.572Z,97274.81
2023-04-04T10:11:06.520Z,97262.66
2023-04-04T10:12:11.552Z,97279.97
2023-04-04T10:13:13.338Z,97271.47
2023-04-04T10:14:15.592Z,97277.09
2023-04-04T10:15:17.315Z,97270.03
2023-04-04T10:16:18.978Z,97264.13
2023-04-04T10:17:21.223Z,97269.28
2023-04-04T10:18:27.375Z,97267.34
2023-04-04T10:19:29.182Z,97260.16
2023-04-04T10:20:31.911Z,97267.97
2023-04-04T10:21:34.548Z,97265.09
2023-04-04T10:22:38.007Z,97263.78
2023-04-04T10:23:41.291Z,97264.44
2023-04-04T10:24:42.716Z,97259.72
2023-04-04T10:25:44.631Z,97264.63
2023-04-04T10:26:46.258Z,97272.53
2023-04-04T10:27:49.578Z,97265.94
2023-04-04T10:28:52.209Z,97260.13
2023-04-04T10:29:53.813Z,97259.06
2023-04-04T10:31:06.337Z,97271.53
2023-04-04T10:32:16.343Z,97265.56
2023-04-04T10:33:28.281Z,97265.41
2023-04-04T10:34:42.098Z,97268.78
2023-04-04T10:35:47.795Z,97268.22
2023-04-04T10:36:51.500Z,97259.47
2023-04-04T10:37:58.382Z,97260.16
2023-04-04T10:39:23.779Z,97260.00
2023-04-04T10:40:34.614Z,97253.28
2023-04-04T10:41:36.460Z,97267.31
2023-04-04T10:42:47.668Z,97251.97
2023-04-04T10:43:52.217Z,97273.69
2023-04-04T10:44:54.112Z,97269.34
2023-04-04T10:46:01.744Z,97272.31
2023-04-04T10:47:22.251Z,97280.31
2023-04-04T10:48:26.039Z,97269.75
2023-04-04T10:49:28.039Z,97270.56
2023-04-04T10:50:31.776Z,97258.13
2023-04-04T10:51:39.440Z,97263.28
2023-04-04T10:52:47.494Z,97257.06
2023-04-04T10:53:49.953Z,97243.25
2023-04-04T10:54:57.439Z,97250.19
2023-04-04T10:56:01.658Z,97254.03
2023-04-04T10:57:04.097Z,97266.38
2023-04-04T10:58:06.342Z,97268.31
2023-04-04T10:59:15.968Z,97262.81
2023-04-04T11:00:19.347Z,97265.38
2023-04-04T11:01:22.262Z,97260.00
2023-04-04T11:02:43.832Z,97256.34
2023-04-04T11:04:21.511Z,97261.38
2023-04-04T11:05:51.495Z,97253.41
2023-04-04T11:07:09.369Z,97253.47
2023-04-04T11:08:14.028Z,97256.19
2023-04-04T11:09:15.701Z,97260.19
2023-04-04T11:10:23.685Z,97255.16
2023-04-04T11:11:26.984Z,97254.03
2023-04-04T11:12:34.280Z,97247.84
2023-04-04T11:13:35.837Z,97250.44
2023-04-04T11:14:37.505Z,97249.16
2023-04-04T11:15:59.833Z,97244.28
2023-04-04T11:17:10.598Z,97253.00
2023-04-04T11:18:27.087Z,97234.69
2023-04-04T11:19:33.361Z,97238.03
2023-04-04T11:20:36.633Z,97250.88
2023-04-04T11:21:39.276Z,97243.41
2023-04-04T11:22:42.585Z,97243.34
2023-04-04T11:23:49.986Z,97248.91
2023-04-04T11:25:00.133Z,97233.44
2023-04-04T11:26:03.478Z,97240.31
2023-04-04T11:27:06.944Z,97241.63
2023-04-04T11:28:14.771Z,97244.00
2023-04-04T11:29:53.389Z,97245.16
2023-04-04T11:31:20.540Z,97237.25
2023-04-04T11:32:50.227Z,97242.84
2023-04-04T11:34:13.626Z,97233.00
2023-04-04T11:35:15.699Z,97230.44
2023-04-04T11:36:50.849Z,97238.94
2023-04-04T11:37:55.003Z,97237.84
2023-04-04T11:38:58.353Z,97240.25
2023-04-04T11:40:09.299Z,97226.03
2023-04-04T11:41:11.796Z,97230.53
2023-04-04T11:42:14.383Z,97236.22
2023-04-04T11:43:17.012Z,97233.22
2023-04-04T11:44:19.565Z,97234.59
2023-04-04T11:45:21.294Z,97235.03
2023-04-04T11:46:23.914Z,97229.06
2023-04-04T11:47:25.728Z,97230.75
2023-04-04T11:48:27.153Z,97239.66
2023-04-04T11:49:30.268Z,97243.25
2023-04-04T11:50:36.728Z,97213.63
2023-04-04T11:51:41.807Z,97210.56
2023-04-04T11:52:43.141Z,97226.06
2023-04-04T11:53:48.004Z,97239.41
2023-04-04T11:54:50.249Z,97239.03
2023-04-04T11:55:53.134Z,97230.78
2023-04-04T11:56:54.657Z,97224.25
2023-04-04T11:57:58.169Z,97228.00
2023-04-04T11:59:10.779Z,97227.44
2023-04-04T12:00:27.566Z,97229.81
2023-04-04T12:01:29.239Z,97228.53
2023-04-04T12:02:34.591Z,97226.16
2023-04-04T12:03:36.267Z,97225.31
2023-04-04T12:04:41.143Z,97221.47
2023-04-04T12:05:44.878Z,97216.41
2023-04-04T12:06:54.202Z,97221.31
2023-04-04T12:07:55.706Z,97212.59
2023-04-04T12:08:57.593Z,97216.97
2023-04-04T12:09:59.279Z,97221.00
2023-04-04T12:11:06.466Z,97209.44
2023-04-04T12:12:12.567Z,97210.31
2023-04-04T12:13:15.026Z,97210.06
2023-04-04T12:14:22.103Z,97211.28
2023-04-04T12:15:23.499Z,97218.81
2023-04-04T12:16:24.957Z,97215.81
2023-04-04T12:17:29.940Z,97221.00
2023-04-04T12:18:31.907Z,97213.00
2023-04-04T12:19:38.394Z,97213.47
2023-04-04T12:20:41.381Z,97209.66
2023-04-04T12:21:42.850Z,97212.38
2023-04-04T12:22:48.414Z,97206.69
2023-04-04T12:23:49.904Z,97212.03
2023-04-04T12:24:51.482Z,97208.06
2023-04-04T12:25:55.674Z,97204.88
2023-04-04T12:26:58.501Z,97215.81
2023-04-04T12:28:02.426Z,97205.63
2023-04-04T12:29:05.674Z,97203.25
2023-04-04T12:30:15.358Z,97207.81
2023-04-04T12:31:17.316Z,97204.44
2023-04-04T12:32:19.029Z,97210.66
2023-04-04T12:33:21.209Z,97195.94
2023-04-04T12:34:24.505Z,97210.97
2023-04-04T12:35:26.110Z,97201.44
2023-04-04T12:36:29.816Z,97204.47
2023-04-04T12:37:31.268Z,97205.94
2023-04-04T12:38:32.977Z,97194.00
2023-04-04T12:39:34.372Z,97206.59
2023-04-04T12:40:37.916Z,97203.00
2023-04-04T12:41:53.184Z,97210.16
2023-04-04T12:42:55.565Z,97207.41
2023-04-04T12:44:02.399Z,97203.59
2023-04-04T12:45:05.215Z,97200.91
2023-04-04T12:46:08.435Z,97196.56
2023-04-04T12:47:11.366Z,97203.06
2023-04-04T12:48:14.967Z,97203.78
2023-04-04T12:49:22.076Z,97204.56
2023-04-04T12:50:26.453Z,97198.47
2023-04-04T12:51:32.815Z,97196.84
2023-04-04T12:52:39.787Z,97194.69
2023-04-04T12:53:59.757Z,97195.59
2023-04-04T12:55:09.420Z,97192.91
2023-04-04T12:56:11.170Z,97188.59
2023-04-04T12:57:18.600Z,97189.16
2023-04-04T12:58:22.698Z,97184.91
2023-04-04T12:59:28.697Z,97196.28
2023-04-04T13:00:30.668Z,97192.63
2023-04-04T13:01:33.093Z,97192.78
2023-04-04T13:02:36.117Z,97195.59
2023-04-04T13:03:38.690Z,97189.13
2023-04-04T13:04:40.679Z,97187.38
2023-04-04T13:05:47.199Z,97177.22
2023-04-04T13:06:48.896Z,97186.72
2023-04-04T13:07:50.376Z,97173.66
2023-04-04T13:08:53.644Z,97173.28
2023-04-04T13:10:00.356Z,97173.44
2023-04-04T13:11:05.135Z,97178.59
2023-04-04T13:12:08.613Z,97180.38
2023-04-04T13:13:09.996Z,97172.91
2023-04-04T13:14:13.340Z,97176.34
2023-04-04T13:15:16.522Z,97183.22
2023-04-04T13:16:38.032Z,97171.53
2023-04-04T13:17:50.257Z,97163.47
2023-04-04T13:18:51.686Z,97176.31
2023-04-04T13:19:53.146Z,97169.25
2023-04-04T13:20:55.038Z,97181.91
2023-04-04T13:21:56.557Z,97186.09
2023-04-04T13:22:58.786Z,97178.91
2023-04-04T13:24:02.785Z,97174.44
2023-04-04T13:25:05.952Z,97177.50
2023-04-04T13:26:09.654Z,97174.53
2023-04-04T13:27:11.110Z,97164.94
2023-04-04T13:28:13.063Z,97171.16
2023-04-04T13:29:14.472Z,97163.34
2023-04-04T13:30:16.123Z,97161.13
2023-04-04T13:31:17.875Z,97154.66
2023-04-04T13:32:19.587Z,97155.53
2023-04-04T13:33:22.270Z,97153.75
2023-04-04T13:34:27.329Z,97156.13
2023-04-04T13:35:28.772Z,97152.28
2023-04-04T13:36:31.292Z,97144.53
2023-04-04T13:37:32.791Z,97123.53
2023-04-04T13:38:34.686Z,97135.28
2023-04-04T13:39:36.350Z,97147.38
2023-04-04T13:40:37.760Z,97148.44
2023-04-04T13:41:39.124Z,97150.94
2023-04-04T13:42:40.549Z,97150.44
2023-04-04T13:43:41.907Z,97150.28
2023-04-04T13:44:43.245Z,97150.31
2023-04-04T13:45:45.156Z,97145.50
2023-04-04T13:46:46.582Z,97146.19
2023-04-04T13:47:48.174Z,97151.53
2023-04-04T13:48:49.703Z,97152.72
2023-04-04T13:49:51.172Z,97140.19
2023-04-04T13:50:54.115Z,97147.03
2023-04-04T13:51:55.663Z,97148.19
2023-04-04T13:52:57.042Z,97140.03
2023-04-04T13:53:58.488Z,97136.03
2023-04-04T13:54:59.837Z,97134.34
2023-04-04T13:56:17.953Z,97139.41
2023-04-04T13:57:20.262Z,97138.53
2023-04-04T13:58:21.654Z,97131.59
2023-04-04T13:59:23.161Z,97128.38
2023-04-04T14:00:25.594Z,97131.69
2023-04-04T14:01:27.416Z,97118.97
2023-04-04T14:02:28.914Z,97140.81
2023-04-04T14:03:30.640Z,97136.72
2023-04-04T14:04:32.055Z,97135.97
2023-04-04T14:05:33.719Z,97130.19
2023-04-04T14:06:35.902Z,97139.88
2023-04-04T14:07:38.271Z,97135.72
2023-04-04T14:08:39.909Z,97136.47
2023-04-04T14:09:41.628Z,97137.00
2023-04-04T14:10:43.082Z,97136.19
2023-04-04T14:11:46.386Z,97143.66
2023-04-04T14:12:47.862Z,97134.22
2023-04-04T14:13:51.834Z,97137.59
2023-04-04T14:14:53.275Z,97135.13
2023-04-04T14:15:54.858Z,97133.28
2023-04-04T14:16:56.394Z,97128.06
2023-04-04T14:17:57.845Z,97133.94
2023-04-04T14:18:59.203Z,97134.75
2023-04-04T14:20:00.803Z,97118.72
2023-04-04T14:21:03.120Z,97134.69
2023-04-04T14:22:05.203Z,97133.41
2023-04-04T14:23:06.892Z,97129.97
2023-04-04T14:24:08.318Z,97130.44
2023-04-04T14:25:09.992Z,97124.34
2023-04-04T14:26:11.703Z,97115.59
2023-04-04T14:27:13.218Z,97114.38
2023-04-04T14:28:14.619Z,97124.22
2023-04-04T14:29:16.577Z,97123.16
2023-04-04T14:30:17.936Z,97128.19
2023-04-04T14:31:19.854Z,97132.03
2023-04-04T14:32:21.240Z,97136.16
2023-04-04T14:33:22.660Z,97133.81
2023-04-04T14:34:26.623Z,97122.38
2023-04-04T14:35:28.052Z,97122.41
2023-04-04T14:36:30.107Z,97119.34
2023-04-04T14:37:31.542Z,97107.63
2023-04-04T14:38:33.024Z,97116.13
2023-04-04T14:39:34.429Z,97112.75
2023-04-04T14:40:36.432Z,97124.69
2023-04-04T14:41:37.887Z,97123.31
2023-04-04T14:42:39.427Z,97122.53
2023-04-04T14:43:41.077Z,97122.31
2023-04-04T14:44:42.832Z,97128.38
2023-04-04T14:45:44.182Z,97115.06
2023-04-04T14:46:45.605Z,97125.84
2023-04-04T14:47:47.322Z,97118.53
2023-04-04T14:48:48.715Z,97125.38
2023-04-04T14:49:50.100Z,97123.78
2023-04-04T14:50:52.118Z,97119.06
2023-04-04T14:51:53.476Z,97126.25
2023-04-04T14:52:56.471Z,97127.03
2023-04-04T14:53:58.334Z,97118.94
2023-04-04T14:54:59.748Z,97121.34
2023-04-04T14:56:01.190Z,97122.41
2023-04-04T14:57:03.369Z,97118.03
2023-04-04T14:58:04.746Z,97124.41
2023-04-04T14:59:06.915Z,97122.69
2023-04-04T15:00:09.024Z,97130.97
2023-04-04T15:01:11.350Z,97109.06
2023-04-04T15:02:12.916Z,97116.00
2023-04-04T15:03:14.351Z,97121.28
2023-04-04T15:04:16.174Z,97117.22
2023-04-04T15:05:18.415Z,97119.91
2023-04-04T15:06:21.486Z,97127.16
2023-04-04T15:07:24.294Z,97123.78
2023-04-04T15:08:25.636Z,97108.06
2023-04-04T15:09:26.997Z,97111.97
2023-04-04T15:10:28.441Z,97112.84
2023-04-04T15:11:29.854Z,97113.72
2023-04-04T15:12:31.221Z,97108.53
2023-04-04T15:13:33.642Z,97124.91
2023-04-04T15:14:35.057Z,97122.34
2023-04-04T15:15:36.433Z,97115.69
2023-04-04T15:16:38.318Z,97118.44
2023-04-04T15:17:40.616Z,97113.22
2023-04-04T15:18:42.031Z,97116.13
2023-04-04T15:19:43.408Z,97122.66
2023-04-04T15:20:44.986Z,97118.53
2023-04-04T15:21:48.026Z,97122.78
2023-04-04T15:22:49.408Z,97117.25
2023-04-04T15:23:50.847Z,97116.25
2023-04-04T15:24:52.214Z,97111.50
2023-04-04T15:25:53.549Z,97104.38
2023-04-04T15:26:56.446Z,97116.75
2023-04-04T15:27:58.876Z,97107.00
2023-04-04T15:29:00.289Z,97111.88
2023-04-04T15:30:01.979Z,97112.16
2023-04-04T15:31:03.466Z,97116.34
2023-04-04T15:32:04.969Z,97103.16
2023-04-04T15:33:06.540Z,97115.88
2023-04-04T15:34:09.422Z,97113.34
2023-04-04T15:35:16.901Z,97113.63
2023-04-04T15:36:18.384Z,97102.88
2023-04-04T15:37:20.111Z,97102.94
2023-04-04T15:38:22.463Z,97100.38
2023-04-04T15:39:24.102Z,97110.13
2023-04-04T15:40:25.690Z,97097.56
2023-04-04T15:41:27.353Z,97102.00
2023-04-04T15:42:29.234Z,97103.63
2023-04-04T15:43:31.866Z,97104.28
2023-04-04T15:44:33.384Z,97101.41
2023-04-04T15:45:34.737Z,97111.50
2023-04-04T15:46:36.496Z,97107.69
2023-04-04T15:47:37.925Z,97114.53
2023-04-04T15:48:39.341Z,97105.16
2023-04-04T15:49:40.707Z,97107.22
2023-04-04T15:50:42.402Z,97091.97
2023-04-04T15:51:45.024Z,97101.75
2023-04-04T15:52:46.435Z,97104.56
2023-04-04T15:53:47.992Z,97105.69
2023-04-04T15:54:49.386Z,97098.00
2023-04-04T15:55:50.898Z,97105.84
2023-04-04T15:56:52.220Z,97098.50
2023-04-04T15:57:53.599Z,97101.94
2023-04-04T15:58:55.820Z,97100.66
2023-04-04T15:59:57.240Z,97098.38
2023-04-04T16:00:58.742Z,97102.53
2023-04-04T16:02:00.407Z,97101.63
2023-04-04T16:03:02.076Z,97097.59
2023-04-04T16:04:03.818Z,97098.31
2023-04-04T16:05:06.038Z,97095.16
2023-04-04T16:06:12.747Z,97091.13
2023-04-04T16:07:14.096Z,97087.09
2023-04-04T16:08:15.806Z,97088.78
2023-04-04T16:09:17.143Z,97094.63
2023-04-04T16:10:18.557Z,97092.06
2023-04-04T16:11:19.999Z,97085.19
2023-04-04T16:12:21.548Z,97094.59
2023-04-04T16:13:23.078Z,97083.06
2023-04-04T16:14:24.874Z,97091.81
2023-04-04T16:15:26.297Z,97086.16
2023-04-04T16:16:27.734Z,97085.97
2023-04-04T16:17:30.365Z,97084.19
2023-04-04T16:18:33.444Z,97093.91
2023-04-04T16:19:34.861Z,97087.88
2023-04-04T16:20:36.616Z,97086.50
2023-04-04T16:21:38.057Z,97088.06
2023-04-04T16:22:39.472Z,97084.69
2023-04-04T16:23:40.999Z,97078.00
2023-04-04T16:24:42.480Z,97083.72
2023-04-04T16:25:44.150Z,97089.22
2023-04-04T16:26:48.744Z,97082.53
2023-04-04T16:27:50.130Z,97088.97
2023-04-04T16:28:51.609Z,97084.84
2023-04-04T16:29:53.012Z,97086.03
2023-04-04T16:30:54.474Z,97084.16
2023-04-04T16:31:56.079Z,97081.28
2023-04-04T16:32:57.787Z,97081.66
2023-04-04T16:33:59.373Z,97072.78
2023-04-04T16:35:00.981Z,97068.19
2023-04-04T16:36:02.309Z,97072.44
2023-04-04T16:37:03.701Z,97065.63
2023-04-04T16:38:06.223Z,97076.63
2023-04-04T16:39:07.840Z,97068.72
2023-04-04T16:40:09.679Z,97082.31
2023-04-04T16:41:11.585Z,97074.09
2023-04-04T16:42:13.133Z,97074.09
2023-04-04T16:43:14.541Z,97076.41
2023-04-04T16:44:15.985Z,97076.88
2023-04-04T16:45:17.433Z,97073.28
2023-04-04T16:46:19.398Z,97075.38
2023-04-04T16:47:20.858Z,97073.53
2023-04-04T16:48:22.263Z,97077.72
2023-04-04T16:49:23.749Z,97071.53
2023-04-04T16:50:25.717Z,97073.56
2023-04-04T16:51:28.653Z,97068.81
2023-04-04T16:52:30.743Z,97066.13
2023-04-04T16:53:32.172Z,97072.81
2023-04-04T16:54:33.585Z,97081.00
2023-04-04T16:55:35.257Z,97074.00
2023-04-04T16:56:36.753Z,97062.97
2023-04-04T16:57:38.136Z,97072.41
2023-04-04T16:58:39.905Z,97077.84
2023-04-04T16:59:41.356Z,97076.75
2023-04-04T17:00:43.238Z,97064.69
2023-04-04T17:01:45.184Z,97065.47
2023-04-04T17:02:46.601Z,97062.03
2023-04-04T17:03:48.962Z,97066.41
2023-04-04T17:04:51.231Z,97061.03
